Time;durP1;ratioP1;P1;durP2;ratioP2;P2;SDS_P1;SDS_P2;PMS_P1;PMS_P2;Temp;Humidity;BMP_temperature;BMP_pressure;BME280_temperature;BME280_humidity;BME280_pressure;Samples;Min_cycle;Max_cycle;Signal;HPM_P1;HPM_P2
2021/11/25 00:00:52;;;;;;;9.07;5.25;;;1.80;99.90;;;;;;4994442;28;20037;-85
2021/11/25 00:03:17;;;;;;;8.20;5.15;;;1.80;99.90;;;;;;4998139;28;20037;-84
2021/11/25 00:05:44;;;;;;;8.82;6.05;;;1.80;99.90;;;;;;4991635;28;20037;-84
2021/11/25 00:08:09;;;;;;;7.15;5.40;;;1.70;99.90;;;;;;4993422;28;20045;-84
2021/11/25 00:10:40;;;;;;;8.15;5.50;;;1.70;99.90;;;;;;4993860;28;20033;-85
2021/11/25 00:13:06;;;;;;;9.02;5.65;;;1.60;99.90;;;;;;4976339;28;20137;-84
2021/11/25 00:15:32;;;;;;;8.00;5.22;;;1.60;99.90;;;;;;5005645;28;20111;-84
2021/11/25 00:17:57;;;;;;;8.15;5.47;;;1.50;99.90;;;;;;4993166;28;20057;-83
2021/11/25 00:20:24;;;;;;;7.53;5.13;;;1.50;99.90;;;;;;4993573;28;20048;-85
2021/11/25 00:22:50;;;;;;;9.40;6.45;;;1.50;99.90;;;;;;4993816;28;20033;-85
2021/11/25 00:25:15;;;;;;;8.80;5.65;;;1.50;99.90;;;;;;4977736;28;20081;-85
2021/11/25 00:27:42;;;;;;;10.30;5.65;;;1.50;99.90;;;;;;4977350;28;20029;-84
2021/11/25 00:30:11;;;;;;;7.80;4.90;;;1.50;99.90;;;;;;5026563;28;20025;-84
2021/11/25 00:32:37;;;;;;;8.13;5.40;;;1.60;99.90;;;;;;4994789;28;20484;-84
2021/11/25 00:35:04;;;;;;;7.03;5.07;;;1.60;99.90;;;;;;4977959;28;20026;-85
2021/11/25 00:37:30;;;;;;;8.52;5.75;;;1.50;99.90;;;;;;4976029;28;20042;-85
2021/11/25 00:39:56;;;;;;;7.47;5.28;;;1.60;99.90;;;;;;4993347;28;20037;-85
2021/11/25 00:42:22;;;;;;;8.10;5.65;;;1.60;99.90;;;;;;4981034;28;20038;-84
2021/11/25 00:44:48;;;;;;;9.75;5.30;;;1.50;99.90;;;;;;4977711;28;20091;-84
2021/11/25 00:47:13;;;;;;;7.40;5.18;;;1.50;99.90;;;;;;4999775;28;20079;-84
2021/11/25 00:49:39;;;;;;;8.52;5.53;;;1.50;99.90;;;;;;4993552;28;20071;-85
2021/11/25 00:52:06;;;;;;;7.32;5.30;;;1.40;99.90;;;;;;4998388;28;20037;-84
2021/11/25 00:54:31;;;;;;;8.98;5.97;;;1.40;99.90;;;;;;4994114;28;20057;-84
2021/11/25 00:56:57;;;;;;;7.25;5.03;;;1.50;99.90;;;;;;4993102;28;20483;-84
2021/11/25 00:59:23;;;;;;;7.82;5.57;;;1.50;99.90;;;;;;4987518;28;20439;-85
2021/11/25 01:01:49;;;;;;;8.90;5.45;;;1.50;99.90;;;;;;4993460;28;20037;-84
2021/11/25 01:04:14;;;;;;;8.48;5.20;;;1.50;99.90;;;;;;4993409;28;20503;-84
2021/11/25 01:06:40;;;;;;;10.07;6.18;;;1.50;99.90;;;;;;5023985;28;20030;-84
2021/11/25 01:09:06;;;;;;;7.78;5.63;;;1.50;99.90;;;;;;4992781;28;20088;-84
2021/11/25 01:11:32;;;;;;;9.18;5.43;;;1.50;99.90;;;;;;5010015;28;20490;-84
2021/11/25 01:13:58;;;;;;;8.10;5.78;;;1.50;99.90;;;;;;4993627;28;20514;-84
2021/11/25 01:16:24;;;;;;;8.23;5.38;;;1.40;99.90;;;;;;5025682;28;20446;-84
2021/11/25 01:18:50;;;;;;;8.13;5.00;;;1.50;99.90;;;;;;4995081;28;20040;-84
2021/11/25 01:21:16;;;;;;;8.05;4.90;;;1.40;99.90;;;;;;4977239;28;20084;-85
2021/11/25 01:23:43;;;;;;;7.18;4.57;;;1.50;99.90;;;;;;4980907;28;20038;-86
2021/11/25 01:26:09;;;;;;;9.05;5.50;;;1.50;99.90;;;;;;5008980;28;20440;-85
2021/11/25 01:28:35;;;;;;;7.78;5.30;;;1.50;99.90;;;;;;4993309;28;20034;-84
2021/11/25 01:31:01;;;;;;;8.70;5.20;;;1.50;99.90;;;;;;5012455;28;20022;-85
2021/11/25 01:33:28;;;;;;;7.53;5.10;;;1.50;99.90;;;;;;5015096;28;20468;-84
2021/11/25 01:35:56;;;;;;;8.23;5.40;;;1.50;99.90;;;;;;5014483;28;20025;-84
2021/11/25 01:38:22;;;;;;;7.47;5.50;;;1.60;99.90;;;;;;4996563;28;20040;-84
2021/11/25 01:40:48;;;;;;;7.82;5.50;;;1.50;99.90;;;;;;5013442;28;20030;-84
2021/11/25 01:43:20;;;;;;;8.30;4.93;;;1.50;99.90;;;;;;5026475;28;20029;-84
2021/11/25 01:45:48;;;;;;;8.73;5.43;;;1.50;99.90;;;;;;4997630;28;20599;-85
2021/11/25 01:48:13;;;;;;;8.50;5.25;;;1.50;99.90;;;;;;5012345;28;20408;-85
2021/11/25 01:50:40;;;;;;;7.40;5.30;;;1.50;99.90;;;;;;4997102;28;20025;-84
2021/11/25 01:53:06;;;;;;;9.88;5.53;;;1.50;99.90;;;;;;4995275;28;20501;-84
2021/11/25 01:55:32;;;;;;;9.82;6.05;;;1.50;99.90;;;;;;5012847;28;20112;-86
2021/11/25 01:57:57;;;;;;;9.07;5.90;;;1.50;99.90;;;;;;4994375;28;20084;-85
2021/11/25 02:00:40;;;;;;;8.60;5.57;;;1.50;99.90;;;;;;4987152;28;20136;-85
2021/11/25 02:03:08;;;;;;;9.10;6.00;;;1.50;99.90;;;;;;4995235;28;20022;-84
2021/11/25 02:05:35;;;;;;;9.65;5.93;;;1.50;99.90;;;;;;4993329;28;20057;-84
2021/11/25 02:08:01;;;;;;;9.60;5.78;;;1.50;99.90;;;;;;5008484;28;20446;-85
2021/11/25 02:10:27;;;;;;;7.50;5.32;;;1.50;99.90;;;;;;4996393;28;20447;-85
2021/11/25 02:12:54;;;;;;;10.55;6.30;;;1.50;99.90;;;;;;4980409;28;20476;-84
2021/11/25 02:15:20;;;;;;;9.98;6.10;;;1.50;99.90;;;;;;4984476;28;20029;-84
2021/11/25 02:17:47;;;;;;;9.48;5.93;;;1.50;99.90;;;;;;4992831;28;20033;-85
2021/11/25 02:20:14;;;;;;;9.25;6.15;;;1.50;99.90;;;;;;4996066;28;20041;-84
2021/11/25 02:22:42;;;;;;;8.95;6.13;;;1.50;99.90;;;;;;5012926;28;20100;-85
2021/11/25 02:25:10;;;;;;;9.32;6.15;;;1.40;99.90;;;;;;4996803;28;20391;-85
2021/11/25 02:27:36;;;;;;;8.27;5.72;;;1.50;99.90;;;;;;5008795;28;20035;-84
2021/11/25 02:30:04;;;;;;;8.43;5.35;;;1.50;99.90;;;;;;5010884;28;20428;-85
2021/11/25 02:32:39;;;;;;;9.13;5.60;;;1.50;99.90;;;;;;4993217;28;20098;-85
2021/11/25 02:35:11;;;;;;;8.70;5.70;;;1.50;99.90;;;;;;5010885;28;20034;-84
2021/11/25 02:37:37;;;;;;;9.25;5.70;;;1.50;99.90;;;;;;4995977;28;20086;-84
2021/11/25 02:40:26;;;;;;;9.13;5.88;;;1.50;99.90;;;;;;4991206;28;20049;-84
2021/11/25 02:42:55;;;;;;;8.25;5.28;;;1.50;99.90;;;;;;5008075;28;20026;-84
2021/11/25 02:45:23;;;;;;;7.82;5.53;;;1.50;99.90;;;;;;4996489;28;20457;-84
2021/11/25 02:47:49;;;;;;;8.65;5.63;;;1.50;99.90;;;;;;4992036;28;20409;-84
2021/11/25 02:50:17;;;;;;;7.32;5.40;;;1.40;99.90;;;;;;5011293;28;20548;-85
2021/11/25 02:52:45;;;;;;;8.43;5.85;;;1.40;99.90;;;;;;5012572;28;20034;-85
2021/11/25 02:55:12;;;;;;;8.65;5.90;;;1.40;99.90;;;;;;4996065;28;20030;-85
2021/11/25 02:57:39;;;;;;;7.53;4.85;;;1.40;99.90;;;;;;4995663;28;20026;-85
2021/11/25 03:00:26;;;;;;;9.10;6.00;;;1.40;99.90;;;;;;5002045;28;20027;-84
2021/11/25 03:03:03;;;;;;;8.10;5.50;;;1.40;99.90;;;;;;4994790;28;20025;-85
2021/11/25 03:05:29;;;;;;;7.95;5.38;;;1.50;99.90;;;;;;4989675;28;20040;-85
2021/11/25 03:07:59;;;;;;;8.10;5.25;;;1.50;99.90;;;;;;4995335;28;20026;-85
2021/11/25 03:10:25;;;;;;;8.30;5.75;;;1.50;99.90;;;;;;5004951;28;20046;-84
2021/11/25 03:12:50;;;;;;;8.55;5.55;;;1.50;99.90;;;;;;4995642;28;20511;-85
2021/11/25 03:15:16;;;;;;;7.85;5.50;;;1.50;99.90;;;;;;4994872;28;20037;-84
2021/11/25 03:17:54;;;;;;;9.52;5.65;;;1.50;99.90;;;;;;4978174;28;20034;-84
2021/11/25 03:20:21;;;;;;;9.85;6.38;;;1.50;99.90;;;;;;5021327;28;20026;-84
2021/11/25 03:22:47;;;;;;;11.15;5.63;;;1.50;99.90;;;;;;4982260;28;20034;-84
2021/11/25 03:25:13;;;;;;;9.40;6.10;;;1.40;99.90;;;;;;5012470;28;20033;-83
2021/11/25 03:27:39;;;;;;;10.15;6.38;;;1.40;99.90;;;;;;4994232;28;20436;-85
2021/11/25 03:30:06;;;;;;;8.77;6.00;;;1.40;99.90;;;;;;5009907;28;20535;-84
2021/11/25 03:32:32;;;;;;;9.25;5.53;;;1.40;99.90;;;;;;4981860;28;20026;-84
2021/11/25 03:34:58;;;;;;;8.40;5.93;;;1.40;99.90;;;;;;4996099;28;20485;-84
2021/11/25 03:37:23;;;;;;;7.88;4.88;;;1.40;99.90;;;;;;4993681;28;20037;-85
2021/11/25 03:39:49;;;;;;;9.27;5.65;;;1.40;99.90;;;;;;4994208;28;20084;-84
2021/11/25 03:42:15;;;;;;;9.32;5.85;;;1.40;99.90;;;;;;4994695;28;20048;-85
2021/11/25 03:44:44;;;;;;;8.60;5.82;;;1.40;99.90;;;;;;5010987;28;20117;-84
2021/11/25 03:47:10;;;;;;;9.63;5.80;;;1.50;99.90;;;;;;5005768;28;20043;-84
2021/11/25 03:49:36;;;;;;;12.07;6.55;;;1.50;99.90;;;;;;4994420;28;20388;-85
2021/11/25 03:52:03;;;;;;;9.02;6.07;;;1.50;99.90;;;;;;5011380;28;20074;-85
2021/11/25 03:54:29;;;;;;;8.85;5.20;;;1.50;99.90;;;;;;5008498;28;20400;-85
2021/11/25 03:56:55;;;;;;;8.40;5.45;;;1.50;99.90;;;;;;4992533;28;20022;-84
2021/11/25 03:59:20;;;;;;;9.95;6.40;;;1.50;99.90;;;;;;5025239;28;20034;-84
2021/11/25 04:01:46;;;;;;;9.20;5.82;;;1.50;99.90;;;;;;4981281;28;20038;-84
2021/11/25 04:04:12;;;;;;;11.43;6.20;;;1.50;99.90;;;;;;4993901;28;20036;-84
2021/11/25 04:06:38;;;;;;;8.82;5.65;;;1.40;99.90;;;;;;4977596;28;20029;-84
2021/11/25 04:09:05;;;;;;;9.63;6.22;;;1.40;99.90;;;;;;5006910;28;20049;-85
2021/11/25 04:11:31;;;;;;;10.30;6.20;;;1.40;99.90;;;;;;4990412;28;20484;-84
2021/11/25 04:14:00;;;;;;;9.60;6.65;;;1.30;99.90;;;;;;5010157;28;20396;-84
2021/11/25 04:16:26;;;;;;;8.32;5.70;;;1.30;99.90;;;;;;4976526;28;20034;-84
2021/11/25 04:18:51;;;;;;;9.43;6.45;;;1.30;99.90;;;;;;4993746;28;20077;-84
2021/11/25 04:21:17;;;;;;;8.85;5.75;;;1.20;99.90;;;;;;4977525;28;20129;-85
2021/11/25 04:23:43;;;;;;;9.00;5.88;;;1.20;99.90;;;;;;4994032;28;20066;-84
2021/11/25 04:26:09;;;;;;;9.77;6.40;;;1.20;99.90;;;;;;4993850;28;20046;-84
2021/11/25 04:28:35;;;;;;;10.70;5.78;;;1.20;99.90;;;;;;5009028;28;20022;-85
2021/11/25 04:36:31;;;;;;;8.95;5.50;;;1.20;99.90;;;;;;4986593;28;20032;-84
2021/11/25 04:38:58;;;;;;;9.88;5.78;;;1.20;99.90;;;;;;4992374;28;20029;-84
2021/11/25 04:41:23;;;;;;;10.60;6.20;;;1.20;99.90;;;;;;4979837;28;20100;-84
2021/11/25 04:43:49;;;;;;;10.25;6.25;;;1.20;99.90;;;;;;5025988;28;20029;-84
2021/11/25 04:46:15;;;;;;;9.88;5.55;;;1.20;99.90;;;;;;4976926;28;20038;-84
2021/11/25 04:48:41;;;;;;;8.25;5.45;;;1.20;99.90;;;;;;4975828;28;20046;-84
2021/11/25 04:51:07;;;;;;;10.82;6.35;;;1.10;99.90;;;;;;5008735;28;20479;-84
2021/11/25 04:53:33;;;;;;;11.00;6.18;;;1.10;99.90;;;;;;4989505;28;20122;-85
2021/11/25 04:55:59;;;;;;;9.65;6.00;;;1.20;99.90;;;;;;4992239;28;20033;-84
2021/11/25 04:58:25;;;;;;;8.05;5.93;;;1.20;99.90;;;;;;5008091;28;20117;-84
2021/11/25 05:00:51;;;;;;;8.43;5.15;;;1.10;99.90;;;;;;4976605;28;20041;-84
2021/11/25 05:03:17;;;;;;;10.48;5.13;;;1.20;99.90;;;;;;5009024;28;20029;-85
2021/11/25 05:05:43;;;;;;;8.65;5.72;;;1.10;99.90;;;;;;4990179;28;20160;-84
2021/11/25 05:08:09;;;;;;;11.48;5.95;;;1.10;99.90;;;;;;5009774;28;20038;-84
2021/11/25 05:10:35;;;;;;;7.05;5.15;;;1.10;99.90;;;;;;5008026;28;20034;-84
2021/11/25 05:13:02;;;;;;;9.38;5.50;;;1.10;99.90;;;;;;5011676;28;20132;-84
2021/11/25 05:15:28;;;;;;;8.43;5.75;;;1.10;99.90;;;;;;4992937;28;20060;-84
2021/11/25 05:17:54;;;;;;;9.82;6.32;;;1.10;99.90;;;;;;4975156;28;20550;-84
2021/11/25 05:20:22;;;;;;;7.35;5.32;;;1.10;99.90;;;;;;4976741;28;20038;-84
2021/11/25 05:22:48;;;;;;;8.95;5.15;;;1.10;99.90;;;;;;5008230;28;20036;-85
2021/11/25 05:25:17;;;;;;;10.95;6.13;;;1.00;99.90;;;;;;4992439;28;20038;-85
2021/11/25 05:27:43;;;;;;;8.60;6.07;;;1.00;99.90;;;;;;5026030;28;20141;-85
2021/11/25 05:30:10;;;;;;;8.45;5.35;;;1.00;99.90;;;;;;5009987;28;20034;-85
2021/11/25 05:32:37;;;;;;;7.50;5.50;;;1.10;99.90;;;;;;5009904;28;20026;-85
2021/11/25 05:35:04;;;;;;;9.98;5.68;;;1.10;99.90;;;;;;5009088;28;20033;-85
2021/11/25 05:37:29;;;;;;;10.32;6.13;;;1.10;99.90;;;;;;4991058;28;20477;-85
2021/11/25 05:39:55;;;;;;;7.00;5.28;;;1.10;99.90;;;;;;4993206;28;20112;-85
2021/11/25 05:42:21;;;;;;;8.25;5.43;;;1.20;99.90;;;;;;4993505;28;20030;-86
2021/11/25 05:44:47;;;;;;;8.95;6.30;;;1.20;99.90;;;;;;4976881;28;20066;-86
2021/11/25 05:47:13;;;;;;;8.60;5.82;;;1.10;99.90;;;;;;4992205;28;20044;-84
2021/11/25 05:49:39;;;;;;;10.77;6.32;;;1.10;99.90;;;;;;4990719;28;20030;-85
2021/11/25 05:52:05;;;;;;;6.93;5.55;;;1.10;99.90;;;;;;5008783;28;20399;-85
2021/11/25 05:54:31;;;;;;;7.90;5.18;;;1.10;99.90;;;;;;4991856;28;20037;-85
2021/11/25 05:56:57;;;;;;;10.20;5.55;;;1.10;99.90;;;;;;4991482;28;20030;-84
2021/11/25 05:59:23;;;;;;;7.35;5.20;;;1.10;99.90;;;;;;4992280;28;20029;-84
2021/11/25 06:01:49;;;;;;;8.63;5.55;;;1.10;99.90;;;;;;4974240;28;20109;-85
2021/11/25 06:04:15;;;;;;;8.88;5.65;;;1.10;99.90;;;;;;5008976;28;20935;-85
2021/11/25 06:06:41;;;;;;;9.88;6.28;;;1.10;99.90;;;;;;4976790;28;20153;-85
2021/11/25 06:09:07;;;;;;;10.38;6.63;;;1.10;99.90;;;;;;5009276;28;20041;-85
2021/11/25 06:11:33;;;;;;;8.02;5.70;;;1.20;99.90;;;;;;4995138;28;20187;-84
2021/11/25 06:13:58;;;;;;;10.40;6.82;;;1.20;99.90;;;;;;5006164;28;20039;-85
2021/11/25 06:16:24;;;;;;;10.52;6.63;;;1.30;99.90;;;;;;5008554;28;20037;-87
2021/11/25 06:18:50;;;;;;;9.52;6.22;;;1.30;99.90;;;;;;4995808;28;20104;-86
2021/11/25 06:21:16;;;;;;;9.23;5.82;;;1.30;99.90;;;;;;5013082;28;20042;-85
2021/11/25 06:23:42;;;;;;;12.43;7.18;;;1.30;99.90;;;;;;5017381;28;20036;-85
2021/11/25 06:26:08;;;;;;;10.43;6.47;;;1.30;99.90;;;;;;4996662;28;20042;-85
2021/11/25 06:28:34;;;;;;;10.60;6.80;;;1.30;99.90;;;;;;5011646;28;20121;-85
2021/11/25 06:30:59;;;;;;;10.95;6.30;;;1.30;99.90;;;;;;4978885;28;20050;-85
2021/11/25 06:33:25;;;;;;;9.55;5.95;;;1.30;99.90;;;;;;4975301;28;20036;-85
2021/11/25 06:35:51;;;;;;;10.38;6.07;;;1.30;99.90;;;;;;4978370;28;20068;-85
2021/11/25 06:38:19;;;;;;;9.18;5.90;;;1.20;99.90;;;;;;5012032;28;20022;-85
2021/11/25 06:40:46;;;;;;;10.68;6.20;;;1.20;99.90;;;;;;5001879;28;20034;-85
2021/11/25 06:43:15;;;;;;;11.80;7.35;;;1.20;99.90;;;;;;4994247;28;20038;-85
2021/11/25 06:45:42;;;;;;;10.27;7.05;;;1.20;99.90;;;;;;5016099;28;20029;-85
2021/11/25 06:48:08;;;;;;;9.55;5.88;;;1.20;99.90;;;;;;4998833;28;20026;-85
2021/11/25 06:50:35;;;;;;;13.05;7.05;;;1.20;99.90;;;;;;5004015;28;20129;-85
2021/11/25 06:53:01;;;;;;;9.30;6.43;;;1.20;99.90;;;;;;5012316;28;20065;-84
2021/11/25 06:55:27;;;;;;;10.35;6.72;;;1.10;99.90;;;;;;4993969;28;20089;-87
2021/11/25 06:57:53;;;;;;;11.82;6.57;;;1.20;99.90;;;;;;5016886;28;20041;-85
2021/11/25 07:00:25;;;;;;;10.35;6.30;;;1.20;99.90;;;;;;5026215;28;20037;-85
2021/11/25 07:02:53;;;;;;;10.55;7.00;;;1.20;99.90;;;;;;5012987;28;20108;-85
2021/11/25 07:05:20;;;;;;;10.07;6.25;;;1.20;99.90;;;;;;5009718;28;20113;-85
2021/11/25 07:08:11;;;;;;;10.95;6.25;;;1.20;99.90;;;;;;4994045;28;20145;-85
2021/11/25 07:10:37;;;;;;;13.13;7.43;;;1.20;99.90;;;;;;4978334;28;20046;-84
2021/11/25 07:13:03;;;;;;;13.27;7.78;;;1.30;99.90;;;;;;4995075;28;20026;-85
2021/11/25 07:15:29;;;;;;;13.77;8.18;;;1.30;99.90;;;;;;4978872;28;20471;-85
2021/11/25 07:17:56;;;;;;;15.10;8.73;;;1.40;99.90;;;;;;5010109;28;20037;-84
2021/11/25 07:20:22;;;;;;;15.07;8.68;;;1.50;99.90;;;;;;5027669;28;20117;-84
2021/11/25 07:22:48;;;;;;;15.73;8.45;;;1.50;99.90;;;;;;5025651;28;20033;-84
2021/11/25 07:25:16;;;;;;;15.32;8.43;;;1.50;99.90;;;;;;5027975;28;20514;-84
2021/11/25 07:27:43;;;;;;;10.90;7.07;;;1.50;99.90;;;;;;4991723;28;20100;-85
2021/11/25 07:30:13;;;;;;;12.20;7.72;;;1.50;99.90;;;;;;5011330;28;20041;-84
2021/11/25 07:32:39;;;;;;;11.82;7.18;;;1.50;99.90;;;;;;4979005;28;20033;-84
2021/11/25 07:35:06;;;;;;;11.45;7.45;;;1.50;99.90;;;;;;5009390;28;20472;-84
2021/11/25 07:37:32;;;;;;;11.13;7.60;;;1.50;99.90;;;;;;4989731;28;20400;-84
2021/11/25 07:39:58;;;;;;;11.98;7.20;;;1.40;99.90;;;;;;4988874;28;20129;-84
2021/11/25 07:42:24;;;;;;;11.50;7.30;;;1.40;99.90;;;;;;5010643;28;20124;-85
2021/11/25 07:44:50;;;;;;;11.02;7.32;;;1.40;99.90;;;;;;4994574;28;20073;-84
2021/11/25 07:47:22;;;;;;;9.82;6.53;;;1.30;99.90;;;;;;4993675;28;20491;-84
2021/11/25 07:49:49;;;;;;;10.80;7.13;;;1.30;99.90;;;;;;4977774;28;20033;-84
2021/11/25 07:52:15;;;;;;;11.93;7.40;;;1.30;99.90;;;;;;5010795;28;20611;-84
2021/11/25 07:54:40;;;;;;;11.40;7.35;;;1.30;99.90;;;;;;4994632;28;20558;-84
2021/11/25 07:57:08;;;;;;;10.95;7.00;;;1.30;99.90;;;;;;4977953;28;20042;-84
2021/11/25 07:59:34;;;;;;;15.38;8.52;;;1.30;99.90;;;;;;4993290;28;20025;-85
2021/11/25 08:01:59;;;;;;;11.90;7.70;;;1.40;99.90;;;;;;4995652;28;20037;-85
2021/11/25 08:04:25;;;;;;;13.57;7.90;;;1.40;99.90;;;;;;4977932;28;20470;-84
2021/11/25 08:06:51;;;;;;;11.95;7.22;;;1.40;99.90;;;;;;4993323;28;20194;-85
2021/11/25 08:09:17;;;;;;;12.93;7.32;;;1.40;99.90;;;;;;4992375;28;20040;-84
2021/11/25 08:11:43;;;;;;;11.40;6.88;;;1.40;99.90;;;;;;4982211;28;20030;-84
2021/11/25 08:14:10;;;;;;;13.02;8.38;;;1.40;99.90;;;;;;5023233;28;20463;-84
2021/11/25 08:16:36;;;;;;;14.25;7.97;;;1.40;99.90;;;;;;4997957;28;20025;-85
2021/11/25 08:19:02;;;;;;;14.25;8.07;;;1.50;99.90;;;;;;4987098;28;20038;-84
2021/11/25 08:21:27;;;;;;;12.65;7.88;;;1.40;99.90;;;;;;5024049;28;20057;-84
2021/11/25 08:23:53;;;;;;;15.50;8.07;;;1.40;99.90;;;;;;4990422;28;20528;-85
2021/11/25 08:26:19;;;;;;;13.07;7.78;;;1.40;99.90;;;;;;4973788;28;20105;-85
2021/11/25 08:28:46;;;;;;;15.35;8.38;;;1.40;99.90;;;;;;5004374;28;20025;-83
2021/11/25 08:31:12;;;;;;;11.90;7.40;;;1.50;99.90;;;;;;4983123;28;20049;-84
2021/11/25 08:33:38;;;;;;;13.15;7.68;;;1.50;99.90;;;;;;4990160;28;20570;-84
2021/11/25 08:36:04;;;;;;;12.25;7.53;;;1.50;99.90;;;;;;5008082;28;20038;-84
2021/11/25 08:38:32;;;;;;;11.45;6.78;;;1.50;99.90;;;;;;4976350;28;20762;-85
2021/11/25 08:40:58;;;;;;;12.52;7.35;;;1.50;99.90;;;;;;5021361;28;20038;-85
2021/11/25 08:43:24;;;;;;;14.05;7.47;;;1.50;99.90;;;;;;5006971;28;20022;-85
2021/11/25 08:45:51;;;;;;;13.35;7.85;;;1.50;99.90;;;;;;5005616;28;20030;-85
2021/11/25 08:48:17;;;;;;;13.15;7.07;;;1.50;99.90;;;;;;4986523;28;20041;-83
2021/11/25 08:50:44;;;;;;;12.45;7.32;;;1.60;99.90;;;;;;4989984;28;20605;-84
2021/11/25 08:53:12;;;;;;;11.70;7.65;;;1.60;99.90;;;;;;4977570;28;20041;-84
2021/11/25 08:55:37;;;;;;;10.52;6.88;;;1.60;99.90;;;;;;5003182;28;20026;-84
2021/11/25 08:58:04;;;;;;;13.15;7.63;;;1.60;99.90;;;;;;4989005;28;20045;-84
2021/11/25 09:00:33;;;;;;;11.60;7.25;;;1.60;99.90;;;;;;5005654;28;20558;-86
2021/11/25 09:03:01;;;;;;;12.35;7.93;;;1.60;99.90;;;;;;4990372;28;20052;-84
2021/11/25 09:05:28;;;;;;;14.18;8.02;;;1.70;99.90;;;;;;4983220;28;20038;-85
2021/11/25 09:07:53;;;;;;;16.15;8.68;;;1.60;99.90;;;;;;4988236;28;20038;-87
2021/11/25 09:10:20;;;;;;;12.48;7.35;;;1.70;99.90;;;;;;5001763;28;20538;-84
2021/11/25 09:12:46;;;;;;;13.23;7.95;;;1.60;99.90;;;;;;4989639;28;20067;-84
2021/11/25 09:15:12;;;;;;;12.32;7.53;;;1.60;99.90;;;;;;4989450;28;20026;-86
2021/11/25 09:17:38;;;;;;;11.05;6.90;;;1.60;99.90;;;;;;5002837;28;20458;-84
2021/11/25 09:20:05;;;;;;;12.38;7.78;;;1.60;99.90;;;;;;4979461;28;20038;-85
2021/11/25 09:22:31;;;;;;;14.85;8.00;;;1.70;99.90;;;;;;4973673;28;20400;-84
2021/11/25 09:24:57;;;;;;;11.85;7.65;;;1.70;99.90;;;;;;4972495;28;20037;-84
2021/11/25 09:27:24;;;;;;;12.00;7.45;;;1.70;99.90;;;;;;4999805;28;20058;-84
2021/11/25 09:29:49;;;;;;;13.32;7.93;;;1.70;99.90;;;;;;5000449;28;20088;-83
2021/11/25 09:32:15;;;;;;;13.13;7.88;;;1.70;99.90;;;;;;4988211;28;20640;-84
2021/11/25 09:34:41;;;;;;;10.57;6.88;;;1.60;99.90;;;;;;4987051;28;20393;-83
2021/11/25 09:37:08;;;;;;;14.40;7.97;;;1.60;99.90;;;;;;5000721;28;20037;-84
2021/11/25 09:39:34;;;;;;;13.98;7.95;;;1.70;99.90;;;;;;4993121;28;20038;-85
2021/11/25 09:42:00;;;;;;;13.90;8.00;;;1.70;99.90;;;;;;5004039;28;20049;-86
2021/11/25 09:44:26;;;;;;;12.30;7.03;;;1.70;99.90;;;;;;4999016;28;20104;-85
2021/11/25 09:46:55;;;;;;;12.55;7.90;;;1.70;99.90;;;;;;4970426;28;20061;-84
2021/11/25 09:49:23;;;;;;;11.82;6.82;;;1.70;99.90;;;;;;4970231;28;20627;-84
2021/11/25 09:51:49;;;;;;;11.10;6.38;;;1.70;99.90;;;;;;4976527;28;20066;-85
2021/11/25 09:54:15;;;;;;;11.88;6.95;;;1.60;99.90;;;;;;4992563;28;20109;-85
2021/11/25 09:56:41;;;;;;;14.60;7.93;;;1.70;99.90;;;;;;5006559;28;20746;-84
2021/11/25 09:59:07;;;;;;;13.43;7.60;;;1.70;99.90;;;;;;4986763;28;20058;-84
2021/11/25 10:01:34;;;;;;;11.55;7.03;;;1.70;99.90;;;;;;4992741;28;20416;-84
2021/11/25 10:04:00;;;;;;;11.35;7.20;;;1.70;99.90;;;;;;5011582;28;20049;-86
2021/11/25 10:06:32;;;;;;;13.93;7.45;;;1.80;99.90;;;;;;4993679;28;20053;-85
2021/11/25 10:08:58;;;;;;;13.48;6.60;;;1.80;99.90;;;;;;5013480;28;20037;-86
2021/11/25 10:11:34;;;;;;;14.00;7.38;;;1.70;99.90;;;;;;4992195;28;20026;-83
2021/11/25 10:14:08;;;;;;;13.38;7.18;;;1.70;99.90;;;;;;5010971;28;20156;-84
2021/11/25 10:16:45;;;;;;;13.32;7.07;;;1.70;99.90;;;;;;4997490;28;20034;-85
2021/11/25 10:19:22;;;;;;;10.93;6.78;;;1.70;99.90;;;;;;4995090;28;20069;-85
2021/11/25 10:21:53;;;;;;;13.02;7.03;;;1.70;99.90;;;;;;4994590;28;20085;-86
2021/11/25 10:24:45;;;;;;;12.70;6.60;;;1.70;99.90;;;;;;4995670;28;20038;-85
2021/11/25 10:27:25;;;;;;;13.40;6.78;;;1.70;99.90;;;;;;4990321;28;20043;-84
2021/11/25 10:30:13;;;;;;;10.90;6.55;;;1.70;99.90;;;;;;5026731;28;20026;-84
2021/11/25 10:32:39;;;;;;;15.45;7.75;;;1.80;99.90;;;;;;4992626;28;20033;-84
2021/11/25 10:35:23;;;;;;;12.43;6.95;;;1.80;99.90;;;;;;4995187;28;20026;-85
2021/11/25 10:40:31;;;;;;;13.07;7.43;;;1.80;99.90;;;;;;4993005;28;20026;-85
2021/11/25 10:42:58;;;;;;;11.27;6.97;;;1.90;99.90;;;;;;4982086;28;20037;-84
2021/11/25 10:45:24;;;;;;;12.50;6.95;;;1.80;99.90;;;;;;4969832;28;20023;-84
2021/11/25 10:48:02;;;;;;;10.52;6.60;;;1.90;99.90;;;;;;5002081;28;20533;-84
2021/11/25 10:50:30;;;;;;;13.80;6.70;;;1.90;99.90;;;;;;5000963;28;20030;-85
2021/11/25 10:53:06;;;;;;;10.95;6.30;;;1.80;99.90;;;;;;5004154;28;21103;-85
2021/11/25 10:55:32;;;;;;;12.10;7.50;;;1.80;99.90;;;;;;4988534;28;20026;-85
2021/11/25 10:58:02;;;;;;;13.90;7.35;;;1.90;99.90;;;;;;4988787;28;20045;-85
2021/11/25 11:00:44;;;;;;;12.85;7.68;;;1.90;99.90;;;;;;4975523;28;20104;-84
2021/11/25 11:03:13;;;;;;;16.60;8.75;;;1.90;99.90;;;;;;4988542;28;20049;-85
2021/11/25 11:05:58;;;;;;;12.80;7.57;;;1.90;99.90;;;;;;4973568;28;20484;-85
2021/11/25 11:08:28;;;;;;;12.33;6.93;;;1.80;99.90;;;;;;4987132;28;20023;-85
2021/11/25 11:10:57;;;;;;;12.95;7.20;;;1.80;99.90;;;;;;4996912;28;20164;-84
2021/11/25 11:15:59;;;;;;;13.30;7.57;;;1.90;99.90;;;;;;4989060;28;20069;-84
2021/11/25 11:19:00;;;;;;;12.85;7.07;;;1.90;99.90;;;;;;4976813;28;20034;-84
2021/11/25 11:21:52;;;;;;;12.80;6.93;;;1.90;99.90;;;;;;4997796;28;20526;-85
2021/11/25 11:24:25;;;;;;;11.75;6.82;;;1.90;99.90;;;;;;4989098;28;20061;-85
2021/11/25 11:26:57;;;;;;;12.85;7.53;;;2.00;99.90;;;;;;4988199;28;20108;-84
2021/11/25 11:29:28;;;;;;;13.07;7.07;;;2.00;99.90;;;;;;4996574;28;20129;-84
2021/11/25 11:31:56;;;;;;;13.63;7.32;;;2.00;99.90;;;;;;5004200;28;20079;-84
2021/11/25 11:34:23;;;;;;;15.05;7.07;;;2.00;99.90;;;;;;4974460;28;20030;-85
2021/11/25 11:36:54;;;;;;;13.80;7.53;;;1.90;99.90;;;;;;4987582;28;20554;-85
2021/11/25 11:39:23;;;;;;;13.20;7.38;;;1.90;99.90;;;;;;4990420;28;20608;-84
2021/11/25 11:41:52;;;;;;;15.27;7.28;;;2.00;99.90;;;;;;5018842;28;20030;-84
2021/11/25 11:44:22;;;;;;;14.13;7.88;;;2.00;99.90;;;;;;5007692;28;20037;-84
2021/11/25 11:46:50;;;;;;;13.77;7.75;;;2.00;99.90;;;;;;4990713;28;20022;-84
2021/11/25 11:49:20;;;;;;;13.05;7.45;;;1.90;99.90;;;;;;5005791;28;20538;-84
2021/11/25 11:52:05;;;;;;;11.75;6.65;;;1.90;99.90;;;;;;4986948;28;20030;-84
2021/11/25 11:54:49;;;;;;;13.68;7.43;;;1.80;99.90;;;;;;5004701;28;20021;-85
2021/11/25 11:57:44;;;;;;;15.27;7.57;;;1.80;99.90;;;;;;5006026;28;20030;-84
2021/11/25 12:00:19;;;;;;;10.27;6.40;;;1.90;99.90;;;;;;4998175;28;20045;-84
2021/11/25 12:02:47;;;;;;;13.25;7.70;;;1.80;99.90;;;;;;5005022;28;20284;-83
2021/11/25 12:05:38;;;;;;;15.00;8.05;;;1.80;99.90;;;;;;4989334;28;20575;-84
2021/11/25 12:08:19;;;;;;;13.68;7.28;;;1.80;99.90;;;;;;4996787;28;20054;-85
2021/11/25 12:11:04;;;;;;;11.93;6.82;;;1.80;99.90;;;;;;4999734;28;20121;-85
2021/11/25 12:13:36;;;;;;;13.20;7.45;;;1.80;99.90;;;;;;4987526;28;20038;-85
2021/11/25 12:16:17;;;;;;;11.55;5.85;;;1.80;99.90;;;;;;4989016;28;20501;-86
2021/11/25 12:18:52;;;;;;;13.57;7.07;;;1.80;99.90;;;;;;5001920;28;20025;-86
2021/11/25 12:21:40;;;;;;;12.93;6.78;;;1.90;99.90;;;;;;5006885;28;20389;-85
2021/11/25 12:24:15;;;;;;;12.35;6.43;;;1.90;99.90;;;;;;4992571;28;20090;-85
2021/11/25 12:27:16;;;;;;;12.55;6.72;;;1.90;99.90;;;;;;5004748;28;20483;-85
2021/11/25 12:30:12;;;;;;;10.80;6.78;;;1.90;99.90;;;;;;5005797;28;20041;-84
2021/11/25 12:32:44;;;;;;;11.68;6.15;;;1.90;99.90;;;;;;5003190;28;20030;-85
2021/11/25 12:35:15;;;;;;;12.00;6.80;;;1.90;99.90;;;;;;5022468;28;20408;-84
2021/11/25 12:37:41;;;;;;;12.25;6.40;;;1.90;99.90;;;;;;4987648;28;20034;-86
2021/11/25 12:40:28;;;;;;;14.63;7.85;;;1.90;99.90;;;;;;4991312;28;20026;-84
2021/11/25 12:42:55;;;;;;;16.90;7.55;;;1.90;99.90;;;;;;5003613;28;20046;-86
2021/11/25 12:45:25;;;;;;;12.73;7.10;;;1.90;99.90;;;;;;5019794;28;20041;-87
2021/11/25 12:48:09;;;;;;;13.13;6.95;;;1.90;99.90;;;;;;5005770;28;20485;-86
2021/11/25 12:50:42;;;;;;;14.60;7.55;;;1.90;99.90;;;;;;4995840;28;20540;-85
2021/11/25 12:53:15;;;;;;;15.77;7.78;;;1.90;99.90;;;;;;4996201;28;20422;-85
2021/11/25 12:55:43;;;;;;;13.98;8.05;;;1.90;99.90;;;;;;4988371;28;20032;-85
2021/11/25 12:58:11;;;;;;;15.80;8.57;;;2.00;99.90;;;;;;4990093;28;20514;-85
2021/11/25 13:00:41;;;;;;;16.00;7.97;;;1.90;99.90;;;;;;4975268;28;20058;-84
2021/11/25 13:03:10;;;;;;;13.98;7.65;;;1.90;99.90;;;;;;4976792;28;20113;-85
2021/11/25 13:05:41;;;;;;;15.02;8.38;;;1.90;99.90;;;;;;4975141;28;20042;-84
2021/11/25 13:08:09;;;;;;;14.13;7.25;;;1.90;99.90;;;;;;4987005;28;20044;-84